Stoneham, Canada
Current Conditions -  °F | °C
As of 11:00 PM on Tuesday 21 Oct 2014 (Local Time) from CYOY Reporting Station
Broken Clouds Broken Clouds  
Wind Chill: 32°   Ceiling: 7800
Heat Index: 32°   Visibility: 9mi
Dew Point: 27°   Wind: 0mph
Humidity: 80%   Direction: NA
Pressure: 30.25"   Gusts: NA
Location:  47°N, 71.37°W
Report Text: CYOY 220300Z AUTO 00000KT 9SM BKN078 00/M03 A3025 RMK SLP251
Loading
Personal Weather Stations






























Interactive Weather Map
Tropical Storm Tracking
New forecast layout! Learn more

10-Day Weather Forecast

Advertisements
Track Severe Weather on mobile